This is the latest recevied weather packets stored in our database for station/object EA1PVC-10. If no packets are shown the sender has not sent any weather packets the latest 10 day(s).
| Time | Temp. | Humidity | Pressure | Rain* | Wind** | Luminosity | Snow |
|---|---|---|---|---|---|---|---|
| 1777341013 | 14.44° C | 77% | 920.2 hPa | - | - | - | - |
| 1777340113 | 15° C | 76% | 920.5 hPa | - | - | - | - |
| 1777339213 | 15° C | 75% | 920.7 hPa | - | - | - | - |
| 1777338313 | 15° C | 76% | 921.5 hPa | - | - | - | - |
| 1777337413 | 14.44° C | 76% | 921.1 hPa | - | - | - | - |
| 1777336513 | 15° C | 76% | 921.2 hPa | - | - | - | - |
| 1777334712 | 15° C | 75% | 921.3 hPa | - | - | - | - |
| 1777333812 | 15° C | 74% | 921.4 hPa | - | - | - | - |
| 1777332912 | 15° C | 75% | 921.6 hPa | - | - | - | - |
| 1777332015 | 10° C | 75% | 914.1 hPa | - | - | - | - |
| 1777320289 | 16.11° C | 97% | 921.6 hPa | - | - | - | - |
| 1777319389 | 16.11° C | 100% | 921.8 hPa | - | - | - | - |
| 1777318489 | 16.11° C | 100% | 922 hPa | - | - | - | - |
| 1777317588 | 16.11° C | 100% | 921.9 hPa | - | - | - | - |
| 1777316688 | 16.11° C | 100% | 921.5 hPa | - | - | - | - |
| 1777315788 | 16.67° C | 100% | 920.8 hPa | - | - | - | - |
| 1777314888 | 18.89° C | 100% | 920.4 hPa | - | - | - | - |
| 1777313088 | 29.44° C | 32% | 919.8 hPa | - | - | - | - |
| 1777312188 | 31.11° C | 27% | 919.7 hPa | - | - | - | - |
| 1777311288 | 31.67° C | 27% | 919.9 hPa | - | - | - | - |
| 1777310388 | 30° C | 22% | 911.4 hPa | - | - | - | - |
| 1777309476 | 32.78° C | 25% | 919.8 hPa | - | - | - | - |
| 1777308576 | 30° C | 29% | 920 hPa | - | - | - | - |
| 1777307676 | 28.89° C | 31% | 920 hPa | - | - | - | - |
| 1777306776 | 26.11° C | 33% | 920.1 hPa | - | - | - | - |
* Rain since midnight (hover to see other rain measurements)
** Current wind speed in m/s (hover to see current wind gust speed)